createdAt,value
2017-06-23T00:00:30.937Z,0
2017-06-23T00:01:30.953Z,0
2017-06-23T00:02:30.884Z,0
2017-06-23T00:03:30.962Z,0
2017-06-23T00:04:30.911Z,0
2017-06-23T00:05:30.594Z,0
2017-06-23T00:06:30.881Z,0
2017-06-23T00:07:30.849Z,0
2017-06-23T00:08:30.807Z,0
2017-06-23T00:09:30.858Z,0
2017-06-23T00:10:30.469Z,0
2017-06-23T00:11:30.453Z,0
2017-06-23T00:12:30.441Z,0
2017-06-23T00:13:30.783Z,0
2017-06-23T00:14:30.429Z,0
2017-06-23T00:15:30.415Z,0
2017-06-23T00:16:30.392Z,0
2017-06-23T00:17:30.082Z,0
2017-06-23T00:18:30.162Z,0
2017-06-23T00:19:30.352Z,0
2017-06-23T00:20:30.358Z,0
2017-06-23T00:21:30.655Z,0
2017-06-23T00:22:30.344Z,0
2017-06-23T00:23:29.691Z,0
2017-06-23T00:24:30.001Z,0
2017-06-23T00:25:29.973Z,0
2017-06-23T00:26:30.002Z,0
2017-06-23T00:27:30.267Z,0
2017-06-23T00:28:30.574Z,0
2017-06-23T00:29:30.584Z,0
2017-06-23T00:30:30.017Z,0
2017-06-23T00:31:30.209Z,0
2017-06-23T00:32:30.233Z,0
2017-06-23T00:33:30.192Z,0
2017-06-23T00:34:30.174Z,0
2017-06-23T00:35:29.859Z,0
2017-06-23T00:36:29.842Z,0
2017-06-23T00:37:29.830Z,0
2017-06-23T00:38:29.805Z,0
2017-06-23T00:39:30.176Z,0
2017-06-23T00:40:30.102Z,0
2017-06-23T00:41:29.795Z,0
2017-06-23T00:42:29.770Z,0
2017-06-23T00:43:30.063Z,0
2017-06-23T00:44:30.355Z,0
2017-06-23T00:45:30.350Z,0
2017-06-23T00:46:30.024Z,0
2017-06-23T00:47:29.703Z,0
2017-06-23T00:48:30.304Z,0
2017-06-23T00:49:29.981Z,0
2017-06-23T00:50:29.973Z,0
2017-06-23T00:51:29.651Z,0
2017-06-23T00:52:29.963Z,0
2017-06-23T00:53:30.090Z,0
2017-06-23T00:54:29.917Z,0
2017-06-23T00:55:30.220Z,0
2017-06-23T00:56:30.192Z,0
2017-06-23T00:57:30.202Z,0
2017-06-23T00:58:30.172Z,0
2017-06-23T00:59:30.162Z,0
2017-06-23T01:00:30.143Z,0
2017-06-23T01:01:29.826Z,0
2017-06-23T01:02:30.122Z,0
2017-06-23T01:03:30.102Z,0
2017-06-23T01:04:30.096Z,0
2017-06-23T01:05:29.803Z,0
2017-06-23T01:06:30.094Z,0
2017-06-23T01:07:30.061Z,0
2017-06-23T01:08:30.053Z,0
2017-06-23T01:09:30.091Z,0
2017-06-23T01:10:29.721Z,0
2017-06-23T01:11:29.840Z,0
2017-06-23T01:12:29.683Z,0
2017-06-23T01:13:30.024Z,0
2017-06-23T01:14:29.981Z,0
2017-06-23T01:15:29.701Z,0
2017-06-23T01:16:29.642Z,0
2017-06-23T01:17:29.632Z,0
2017-06-23T01:18:29.632Z,0
2017-06-23T01:19:29.603Z,0
2017-06-23T01:20:29.936Z,0
2017-06-23T01:21:29.572Z,0
2017-06-23T01:22:29.561Z,0
2017-06-23T01:23:29.874Z,0
2017-06-23T01:24:29.251Z,0
2017-06-23T01:25:28.922Z,0
2017-06-23T01:26:29.550Z,0
2017-06-23T01:27:29.803Z,0
2017-06-23T01:28:29.493Z,0
2017-06-23T01:29:29.171Z,0
2017-06-23T01:30:29.165Z,0
2017-06-23T01:31:29.142Z,0
2017-06-23T01:32:29.456Z,0
2017-06-23T01:33:29.430Z,0
2017-06-23T01:34:29.101Z,0
2017-06-23T01:35:29.100Z,0
2017-06-23T01:36:29.433Z,0
2017-06-23T01:37:29.383Z,0
2017-06-23T01:38:29.684Z,0
2017-06-23T01:39:29.040Z,0
2017-06-23T01:40:29.353Z,0
2017-06-23T01:41:29.330Z,0
2017-06-23T01:42:29.353Z,0
2017-06-23T01:43:29.300Z,0
2017-06-23T01:44:28.994Z,0
2017-06-23T01:45:29.273Z,0
2017-06-23T01:46:29.569Z,0
2017-06-23T01:47:29.257Z,0
2017-06-23T01:48:29.310Z,0
2017-06-23T01:49:28.922Z,0
2017-06-23T01:50:28.962Z,0
2017-06-23T01:51:29.502Z,0
2017-06-23T01:52:29.493Z,0
2017-06-23T01:53:28.866Z,0
2017-06-23T01:54:29.165Z,0
2017-06-23T01:55:29.151Z,0
2017-06-23T01:56:29.236Z,0
2017-06-23T01:57:29.165Z,0
2017-06-23T01:58:28.822Z,0
2017-06-23T01:59:29.113Z,0
2017-06-23T02:00:29.390Z,0
2017-06-23T02:01:29.611Z,0
2017-06-23T02:02:29.067Z,0
2017-06-23T02:03:29.054Z,0
2017-06-23T02:04:29.091Z,0
2017-06-23T02:05:29.034Z,0
2017-06-23T02:06:29.041Z,0
2017-06-23T02:07:28.993Z,0
2017-06-23T02:08:28.972Z,0
2017-06-23T02:09:28.978Z,0
2017-06-23T02:10:28.651Z,0
2017-06-23T02:11:29.251Z,0
2017-06-23T02:12:29.082Z,0
2017-06-23T02:13:28.932Z,0
2017-06-23T02:14:28.598Z,0
2017-06-23T02:15:29.211Z,0
2017-06-23T02:16:29.348Z,0
2017-06-23T02:17:28.874Z,0
2017-06-23T02:18:28.951Z,0
2017-06-23T02:19:29.246Z,0
2017-06-23T02:20:29.140Z,0
2017-06-23T02:21:28.882Z,0
2017-06-23T02:22:29.202Z,0
2017-06-23T02:23:28.824Z,0
2017-06-23T02:24:29.122Z,0
2017-06-23T02:25:28.462Z,0
2017-06-23T02:26:29.122Z,0
2017-06-23T02:27:29.031Z,0
2017-06-23T02:28:28.722Z,0
2017-06-23T02:29:29.132Z,0
2017-06-23T02:30:28.702Z,0
2017-06-23T02:31:28.999Z,0
2017-06-23T02:32:28.676Z,0
2017-06-23T02:33:28.422Z,0
2017-06-23T02:34:28.652Z,0
2017-06-23T02:35:28.961Z,0
2017-06-23T02:36:28.935Z,0
2017-06-23T02:37:28.932Z,0
2017-06-23T02:38:28.911Z,0
2017-06-23T02:39:28.907Z,0
2017-06-23T02:40:28.875Z,0
2017-06-23T02:41:28.571Z,0
2017-06-23T02:42:28.874Z,0
2017-06-23T02:43:28.892Z,0
2017-06-23T02:44:28.834Z,0
2017-06-23T02:45:28.521Z,0
2017-06-23T02:46:28.512Z,0
2017-06-23T02:47:28.494Z,0
2017-06-23T02:48:28.492Z,0
2017-06-23T02:49:28.461Z,4
2017-06-23T02:50:28.249Z,4
2017-06-23T02:51:28.422Z,4
2017-06-23T02:52:28.532Z,4
2017-06-23T02:53:28.413Z,4
2017-06-23T02:54:28.123Z,0
2017-06-23T02:55:28.083Z,0
2017-06-23T02:56:28.062Z,4
2017-06-23T02:57:28.332Z,4
2017-06-23T02:58:28.630Z,4
2017-06-23T02:59:28.330Z,4
2017-06-23T03:00:28.610Z,4
2017-06-23T03:01:28.610Z,4
2017-06-23T03:02:27.982Z,8
2017-06-23T03:03:28.571Z,8
2017-06-23T03:04:27.640Z,12
2017-06-23T03:05:28.551Z,12
2017-06-23T03:06:27.924Z,16
2017-06-23T03:07:28.281Z,20
2017-06-23T03:08:28.204Z,24
2017-06-23T03:09:27.891Z,24
2017-06-23T03:10:28.501Z,24
2017-06-23T03:11:28.498Z,24
2017-06-23T03:12:28.158Z,28
2017-06-23T03:13:28.155Z,32
2017-06-23T03:14:28.440Z,32
2017-06-23T03:15:28.171Z,36
2017-06-23T03:16:28.401Z,36
2017-06-23T03:17:28.399Z,44
2017-06-23T03:18:28.389Z,56
2017-06-23T03:19:28.498Z,64
2017-06-23T03:20:28.046Z,72
2017-06-23T03:21:28.046Z,84
2017-06-23T03:22:28.012Z,96
2017-06-23T03:23:28.022Z,108
2017-06-23T03:24:28.012Z,124
2017-06-23T03:25:27.675Z,140
2017-06-23T03:26:27.976Z,160
2017-06-23T03:27:27.960Z,184
2017-06-23T03:28:27.628Z,212
2017-06-23T03:29:27.930Z,232
2017-06-23T03:30:27.910Z,244
2017-06-23T03:31:27.913Z,244
2017-06-23T03:32:27.931Z,256
2017-06-23T03:33:28.189Z,272
2017-06-23T03:34:27.870Z,280
2017-06-23T03:35:27.868Z,320
2017-06-23T03:36:27.832Z,360
2017-06-23T03:37:27.834Z,380
2017-06-23T03:38:27.822Z,420
2017-06-23T03:39:27.642Z,464
2017-06-23T03:40:28.099Z,496
2017-06-23T03:41:27.483Z,528
2017-06-23T03:42:27.445Z,560
2017-06-23T03:43:27.802Z,576
2017-06-23T03:44:27.723Z,596
2017-06-23T03:45:27.734Z,612
2017-06-23T03:46:28.017Z,628
2017-06-23T03:47:27.712Z,644
2017-06-23T03:48:27.372Z,664
2017-06-23T03:49:27.741Z,696
2017-06-23T03:50:27.660Z,736
2017-06-23T03:51:27.639Z,720
2017-06-23T03:52:27.934Z,716
2017-06-23T03:53:27.609Z,712
2017-06-23T03:54:27.923Z,712
2017-06-23T03:55:27.905Z,716
2017-06-23T03:56:27.880Z,724
2017-06-23T03:57:27.576Z,732
2017-06-23T03:58:27.851Z,732
2017-06-23T03:59:27.856Z,744
2017-06-23T04:00:27.857Z,772
2017-06-23T04:01:27.817Z,796
2017-06-23T04:02:27.825Z,816
2017-06-23T04:03:27.796Z,840
2017-06-23T04:04:27.482Z,872
2017-06-23T04:05:27.462Z,904
2017-06-23T04:06:27.435Z,944
2017-06-23T04:07:27.428Z,972
2017-06-23T04:08:27.723Z,1004
2017-06-23T04:09:27.100Z,1032
2017-06-23T04:10:27.412Z,1056
2017-06-23T04:11:27.381Z,1064
2017-06-23T04:12:27.381Z,1072
2017-06-23T04:13:27.367Z,1076
2017-06-23T04:14:27.342Z,1088
2017-06-23T04:15:27.647Z,1136
2017-06-23T04:16:27.695Z,1160
2017-06-23T04:17:27.301Z,1168
2017-06-23T04:18:27.603Z,1184
2017-06-23T04:19:27.592Z,1180
2017-06-23T04:20:27.270Z,1172
2017-06-23T04:21:27.344Z,1156
2017-06-23T04:22:26.954Z,1164
2017-06-23T04:23:27.531Z,1212
2017-06-23T04:24:26.933Z,1268
2017-06-23T04:25:27.561Z,1324
2017-06-23T04:26:27.482Z,1376
2017-06-23T04:27:26.921Z,1424
2017-06-23T04:28:27.462Z,1484
2017-06-23T04:29:27.473Z,1512
2017-06-23T04:30:27.442Z,1528
2017-06-23T04:31:27.123Z,1536
2017-06-23T04:32:26.819Z,1524
2017-06-23T04:33:27.115Z,1540
2017-06-23T04:34:27.080Z,1596
2017-06-23T04:35:26.781Z,1656
2017-06-23T04:36:27.080Z,1704
2017-06-23T04:37:27.053Z,1760
2017-06-23T04:38:26.845Z,1816
2017-06-23T04:39:27.217Z,1868
2017-06-23T04:40:26.881Z,1940
2017-06-23T04:41:27.001Z,2012
2017-06-23T04:42:27.333Z,2052
2017-06-23T04:43:26.661Z,2092
2017-06-23T04:44:27.103Z,2132
2017-06-23T04:45:26.642Z,2220
2017-06-23T04:46:26.969Z,2216
2017-06-23T04:47:27.012Z,2168
2017-06-23T04:48:26.622Z,2096
2017-06-23T04:49:26.583Z,2104
2017-06-23T04:50:26.959Z,1980
2017-06-23T04:51:26.580Z,1932
2017-06-23T04:52:26.935Z,1948
2017-06-23T04:53:27.144Z,1976
2017-06-23T04:54:26.516Z,2072
2017-06-23T04:55:26.803Z,2132
2017-06-23T04:56:27.112Z,2168
2017-06-23T04:57:26.487Z,2232
2017-06-23T04:58:26.471Z,2296
2017-06-23T04:59:26.804Z,2352
2017-06-23T05:00:27.121Z,2500
2017-06-23T05:01:26.742Z,2796
2017-06-23T05:02:26.408Z,3120
2017-06-23T05:03:26.704Z,3464
2017-06-23T05:04:26.704Z,3256
2017-06-23T05:05:26.981Z,2920
2017-06-23T05:06:27.004Z,2704
2017-06-23T05:07:26.653Z,2612
2017-06-23T05:08:26.335Z,2432
2017-06-23T05:09:26.634Z,2444
2017-06-23T05:10:26.334Z,1980
2017-06-23T05:11:26.614Z,2188
2017-06-23T05:12:26.937Z,2376
2017-06-23T05:13:26.593Z,2380
2017-06-23T05:14:26.565Z,2076
2017-06-23T05:15:26.262Z,2156
2017-06-23T05:16:26.859Z,2308
2017-06-23T05:17:26.532Z,2344
2017-06-23T05:18:26.205Z,2628
2017-06-23T05:19:26.215Z,2808
2017-06-23T05:20:26.813Z,3112
2017-06-23T05:21:26.503Z,3236
2017-06-23T05:22:26.476Z,3060
2017-06-23T05:23:26.474Z,3308
2017-06-23T05:24:26.748Z,3448
2017-06-23T05:25:26.429Z,3496
2017-06-23T05:26:26.179Z,3676
2017-06-23T05:27:26.713Z,3476
2017-06-23T05:28:26.692Z,3600
2017-06-23T05:29:26.683Z,3932
2017-06-23T05:30:26.682Z,3420
2017-06-23T05:31:26.374Z,3032
2017-06-23T05:32:26.654Z,3012
2017-06-23T05:33:26.634Z,3072
2017-06-23T05:34:26.641Z,3556
2017-06-23T05:35:26.613Z,3664
2017-06-23T05:36:26.600Z,3688
2017-06-23T05:37:26.283Z,3984
2017-06-23T05:38:26.276Z,4760
2017-06-23T05:39:25.952Z,4560
2017-06-23T05:40:25.670Z,4148
2017-06-23T05:41:26.245Z,3276
2017-06-23T05:42:26.752Z,2856
2017-06-23T05:43:26.522Z,2608
2017-06-23T05:44:26.503Z,2588
2017-06-23T05:45:26.487Z,3120
2017-06-23T05:46:26.492Z,3568
2017-06-23T05:47:26.206Z,3892
2017-06-23T05:48:26.462Z,4124
2017-06-23T05:49:26.503Z,4672
2017-06-23T05:50:26.442Z,5200
2017-06-23T05:51:26.436Z,5156
2017-06-23T05:52:26.093Z,4256
2017-06-23T05:53:26.408Z,3832
2017-06-23T05:54:26.389Z,3732
2017-06-23T05:55:26.402Z,3680
2017-06-23T05:56:25.738Z,3420
2017-06-23T05:57:26.023Z,3444
2017-06-23T05:58:26.021Z,3268
2017-06-23T05:59:26.023Z,3076
2017-06-23T06:00:26.013Z,3532
2017-06-23T06:01:26.297Z,4448
2017-06-23T06:02:25.973Z,4820
2017-06-23T06:03:25.963Z,4552
2017-06-23T06:04:25.952Z,4228
2017-06-23T06:05:26.236Z,3980
2017-06-23T06:06:25.316Z,4964
2017-06-23T06:07:25.929Z,5680
2017-06-23T06:08:25.887Z,5424
2017-06-23T06:09:25.924Z,5392
2017-06-23T06:10:25.565Z,5160
2017-06-23T06:11:25.866Z,5208
2017-06-23T06:12:25.565Z,6120
2017-06-23T06:13:25.848Z,6780
2017-06-23T06:14:25.526Z,6952
2017-06-23T06:15:26.123Z,6940
2017-06-23T06:16:25.805Z,6808
2017-06-23T06:17:26.113Z,6964
2017-06-23T06:18:26.074Z,7512
2017-06-23T06:19:26.146Z,7296
2017-06-23T06:20:25.133Z,7228
2017-06-23T06:21:25.742Z,6960
2017-06-23T06:22:26.035Z,6628
2017-06-23T06:23:25.432Z,6372
2017-06-23T06:24:26.005Z,6060
2017-06-23T06:25:25.702Z,5740
2017-06-23T06:26:25.674Z,5400
2017-06-23T06:27:25.680Z,5048
2017-06-23T06:28:25.651Z,4980
2017-06-23T06:29:25.383Z,5020
2017-06-23T06:30:25.313Z,4928
2017-06-23T06:31:25.629Z,4904
2017-06-23T06:32:25.924Z,4888
2017-06-23T06:33:25.293Z,5004
2017-06-23T06:34:25.906Z,5288
2017-06-23T06:35:25.274Z,5728
2017-06-23T06:36:25.576Z,5352
2017-06-23T06:37:25.234Z,5800
2017-06-23T06:38:25.653Z,6468
2017-06-23T06:39:25.233Z,7112
2017-06-23T06:40:25.830Z,7376
2017-06-23T06:41:25.492Z,7156
2017-06-23T06:42:25.823Z,7132
2017-06-23T06:43:25.789Z,6768
2017-06-23T06:44:25.459Z,6408
2017-06-23T06:45:25.464Z,6668
2017-06-23T06:46:25.452Z,7276
2017-06-23T06:47:25.532Z,7720
2017-06-23T06:48:25.108Z,7560
2017-06-23T06:49:25.416Z,7232
2017-06-23T06:50:25.154Z,7448
2017-06-23T06:51:25.693Z,7352
2017-06-23T06:52:25.133Z,7204
2017-06-23T06:53:25.685Z,7596
2017-06-23T06:54:25.348Z,8188
2017-06-23T06:55:25.366Z,7960
2017-06-23T06:56:25.046Z,7584
2017-06-23T06:57:25.024Z,7476
2017-06-23T06:58:24.713Z,7828
2017-06-23T06:59:24.981Z,8408
2017-06-23T07:00:25.295Z,9484
2017-06-23T07:01:25.300Z,8900
2017-06-23T07:02:25.063Z,9196
2017-06-23T07:03:25.305Z,9276
2017-06-23T07:04:25.396Z,8772
2017-06-23T07:05:24.924Z,9324
2017-06-23T07:06:25.232Z,9032
2017-06-23T07:07:25.264Z,7928
2017-06-23T07:08:25.522Z,8096
2017-06-23T07:09:24.980Z,9668
2017-06-23T07:10:24.623Z,8944
2017-06-23T07:11:25.255Z,8996
2017-06-23T07:12:25.215Z,8772
2017-06-23T07:13:25.523Z,8980
2017-06-23T07:14:25.134Z,8896
2017-06-23T07:15:24.931Z,7996
2017-06-23T07:16:24.812Z,8148
2017-06-23T07:17:24.793Z,7936
2017-06-23T07:18:24.785Z,7404
2017-06-23T07:19:24.784Z,7312
2017-06-23T07:20:24.784Z,8248
2017-06-23T07:21:25.056Z,7908
2017-06-23T07:22:25.377Z,8736
2017-06-23T07:23:25.404Z,9148
2017-06-23T07:24:24.413Z,9488
2017-06-23T07:25:25.102Z,10316
2017-06-23T07:26:25.303Z,9204
2017-06-23T07:27:25.344Z,9484
2017-06-23T07:28:24.981Z,9660
2017-06-23T07:29:25.305Z,8040
2017-06-23T07:30:24.945Z,7548
2017-06-23T07:31:24.646Z,9504
2017-06-23T07:32:25.254Z,10412
2017-06-23T07:33:25.254Z,7792
2017-06-23T07:34:24.992Z,6852
2017-06-23T07:35:24.915Z,7920
2017-06-23T07:36:24.902Z,9072
2017-06-23T07:37:25.203Z,9964
2017-06-23T07:38:24.882Z,8136
2017-06-23T07:39:24.563Z,9432
2017-06-23T07:40:24.853Z,9296
2017-06-23T07:41:24.563Z,7880
2017-06-23T07:42:25.130Z,8300
2017-06-23T07:43:24.822Z,8856
2017-06-23T07:44:24.588Z,8664
2017-06-23T07:45:24.815Z,8696
2017-06-23T07:46:25.112Z,9228
2017-06-23T07:47:24.880Z,8200
2017-06-23T07:48:24.522Z,7880
2017-06-23T07:49:24.459Z,9520
2017-06-23T07:50:24.764Z,9272
2017-06-23T07:51:24.452Z,9632
2017-06-23T07:52:24.742Z,8100
2017-06-23T07:53:24.401Z,8572
2017-06-23T07:54:25.061Z,8772
2017-06-23T07:55:24.713Z,9108
2017-06-23T07:56:24.691Z,9904
2017-06-23T07:57:24.686Z,10016
2017-06-23T07:58:24.686Z,10496
2017-06-23T07:59:25.032Z,8984
2017-06-23T08:00:24.351Z,9000
2017-06-23T08:01:24.639Z,10208
2017-06-23T08:02:24.967Z,10292
2017-06-23T08:03:25.012Z,11052
2017-06-23T08:04:24.610Z,11416
2017-06-23T08:05:24.301Z,9380
2017-06-23T08:06:24.936Z,11596
2017-06-23T08:07:24.980Z,9300
2017-06-23T08:08:24.270Z,10680
2017-06-23T08:09:24.241Z,9808
2017-06-23T08:10:24.250Z,8808
2017-06-23T08:11:24.221Z,9912
2017-06-23T08:12:24.219Z,8156
2017-06-23T08:13:24.519Z,6852
2017-06-23T08:14:24.499Z,6404
2017-06-23T08:15:24.879Z,9428
2017-06-23T08:16:23.860Z,8328
2017-06-23T08:17:24.789Z,9624
2017-06-23T08:18:24.471Z,11276
2017-06-23T08:19:24.189Z,11808
2017-06-23T08:20:24.802Z,11540
2017-06-23T08:21:24.449Z,9960
2017-06-23T08:22:24.726Z,11604
2017-06-23T08:23:24.111Z,9164
2017-06-23T08:24:24.713Z,7208
2017-06-23T08:25:24.407Z,10668
2017-06-23T08:26:24.080Z,10016
2017-06-23T08:27:24.398Z,10812
2017-06-23T08:28:24.532Z,11008
2017-06-23T08:29:23.742Z,12104
2017-06-23T08:30:24.458Z,12736
2017-06-23T08:31:24.338Z,11420
2017-06-23T08:32:24.345Z,11808
2017-06-23T08:33:24.023Z,14232
2017-06-23T08:34:24.311Z,12952
2017-06-23T08:35:24.294Z,11684
2017-06-23T08:36:24.343Z,12100
2017-06-23T08:37:24.291Z,12652
2017-06-23T08:38:24.590Z,12024
2017-06-23T08:39:24.572Z,11716
2017-06-23T08:40:24.550Z,9532
2017-06-23T08:41:24.251Z,6068
2017-06-23T08:42:24.529Z,7196
2017-06-23T08:43:24.239Z,8672
2017-06-23T08:44:24.537Z,9412
2017-06-23T08:45:24.213Z,8784
2017-06-23T08:46:24.224Z,10156
2017-06-23T08:47:23.890Z,10184
2017-06-23T08:48:24.525Z,12216
2017-06-23T08:49:24.479Z,12272
2017-06-23T08:50:24.173Z,11776
2017-06-23T08:51:24.455Z,11952
2017-06-23T08:52:24.158Z,12476
2017-06-23T08:53:24.449Z,13132
2017-06-23T08:54:24.144Z,13540
2017-06-23T08:55:24.160Z,15024
2017-06-23T08:56:24.521Z,10412
2017-06-23T08:57:23.490Z,10276
2017-06-23T08:58:24.139Z,7252
2017-06-23T08:59:24.099Z,6108
2017-06-23T09:00:24.491Z,5676
2017-06-23T09:01:24.066Z,5836
2017-06-23T09:02:24.371Z,6068
2017-06-23T09:03:24.356Z,5900
2017-06-23T09:04:24.056Z,6264
2017-06-23T09:05:24.372Z,7520
2017-06-23T09:06:24.033Z,11256
2017-06-23T09:07:24.007Z,14876
2017-06-23T09:08:24.308Z,15316
2017-06-23T09:09:24.308Z,15852
2017-06-23T09:10:23.973Z,15732
2017-06-23T09:11:24.279Z,16160
2017-06-23T09:12:24.278Z,13804
2017-06-23T09:13:24.278Z,12344
2017-06-23T09:14:23.639Z,13796
2017-06-23T09:15:24.249Z,15772
2017-06-23T09:16:23.915Z,14916
2017-06-23T09:17:24.229Z,13936
2017-06-23T09:18:24.231Z,12904
2017-06-23T09:19:24.200Z,10368
2017-06-23T09:20:24.202Z,7856
2017-06-23T09:21:24.200Z,7700
2017-06-23T09:22:24.200Z,9952
2017-06-23T09:23:23.872Z,10056
2017-06-23T09:24:24.179Z,8204
2017-06-23T09:25:23.869Z,8696
2017-06-23T09:26:23.842Z,7472
2017-06-23T09:27:24.171Z,6428
2017-06-23T09:28:23.837Z,6148
2017-06-23T09:29:24.110Z,24832
2017-06-23T09:30:24.110Z,43072
2017-06-23T09:31:24.218Z,42816
2017-06-23T09:32:24.099Z,51808
2017-06-23T09:33:24.097Z,20768
2017-06-23T09:34:24.128Z,13688
2017-06-23T09:35:24.097Z,12780
2017-06-23T09:36:23.735Z,11308
2017-06-23T09:37:24.137Z,9904
2017-06-23T09:38:24.131Z,8176
2017-06-23T09:39:24.049Z,7548
2017-06-23T09:40:23.736Z,7984
2017-06-23T09:41:23.707Z,8208
2017-06-23T09:42:23.803Z,8728
2017-06-23T09:43:24.045Z,22016
2017-06-23T09:44:23.439Z,9292
2017-06-23T09:45:24.056Z,11704
2017-06-23T09:46:23.667Z,11580
2017-06-23T09:47:24.046Z,40896
2017-06-23T09:48:23.966Z,28960
2017-06-23T09:49:23.971Z,36896
2017-06-23T09:50:23.642Z,12692
2017-06-23T09:51:23.658Z,14756
2017-06-23T09:52:23.940Z,11624
2017-06-23T09:53:23.900Z,8832
2017-06-23T09:54:23.608Z,6692
2017-06-23T09:55:23.911Z,6024
2017-06-23T09:56:23.569Z,8736
2017-06-23T09:57:23.584Z,11236
2017-06-23T09:58:23.568Z,30016
2017-06-23T09:59:23.877Z,6200
2017-06-23T10:00:23.880Z,8840
2017-06-23T10:01:23.530Z,4924
2017-06-23T10:02:23.637Z,7100
2017-06-23T10:03:22.899Z,29024
2017-06-23T10:04:23.608Z,36096
2017-06-23T10:05:23.528Z,31648
2017-06-23T10:06:23.504Z,37984
2017-06-23T10:07:23.194Z,37920
2017-06-23T10:08:23.788Z,28288
2017-06-23T10:09:23.794Z,12264
2017-06-23T10:10:23.577Z,9304
2017-06-23T10:11:23.788Z,7760
2017-06-23T10:12:23.760Z,6052
2017-06-23T10:13:23.738Z,5640
2017-06-23T10:14:23.742Z,5608
2017-06-23T10:15:23.761Z,6532
2017-06-23T10:16:23.743Z,7720
2017-06-23T10:17:23.117Z,9372
2017-06-23T10:18:23.856Z,20192
2017-06-23T10:19:23.817Z,18432
2017-06-23T10:20:23.430Z,18976
2017-06-23T10:21:23.076Z,23488
2017-06-23T10:22:23.709Z,25152
2017-06-23T10:23:23.707Z,27840
2017-06-23T10:24:23.064Z,14960
2017-06-23T10:25:23.697Z,19488
2017-06-23T10:26:23.680Z,18976
2017-06-23T10:27:23.701Z,19712
2017-06-23T10:28:23.642Z,20128
2017-06-23T10:29:23.118Z,14292
2017-06-23T10:30:23.660Z,12544
2017-06-23T10:31:23.633Z,14372
2017-06-23T10:32:23.726Z,13848
2017-06-23T10:33:23.597Z,11460
2017-06-23T10:34:23.598Z,8612
2017-06-23T10:35:23.591Z,7416
2017-06-23T10:36:23.252Z,7200
2017-06-23T10:37:23.568Z,6080
2017-06-23T10:38:22.621Z,5432
2017-06-23T10:39:23.246Z,5200
2017-06-23T10:40:23.220Z,5652
2017-06-23T10:41:23.236Z,5976
2017-06-23T10:42:23.213Z,5572
2017-06-23T10:43:22.590Z,5404
2017-06-23T10:44:23.509Z,7364
2017-06-23T10:45:23.198Z,8656
2017-06-23T10:46:23.270Z,9084
2017-06-23T10:47:22.858Z,9772
2017-06-23T10:48:23.170Z,10388
2017-06-23T10:49:23.481Z,11084
2017-06-23T10:50:22.538Z,10748
2017-06-23T10:51:23.154Z,9532
2017-06-23T10:52:23.469Z,7840
2017-06-23T10:53:23.334Z,7480
2017-06-23T10:54:23.599Z,7324
2017-06-23T10:55:23.407Z,8280
2017-06-23T10:56:23.814Z,10328
2017-06-23T10:57:23.114Z,12380
2017-06-23T10:58:23.133Z,14088
2017-06-23T10:59:23.165Z,13040
2017-06-23T11:00:23.179Z,13696
2017-06-23T11:01:22.743Z,13396
2017-06-23T11:02:22.435Z,13300
2017-06-23T11:03:23.064Z,10632
2017-06-23T11:04:23.041Z,12612
2017-06-23T11:05:23.020Z,12228
2017-06-23T11:06:23.029Z,12396
2017-06-23T11:07:23.095Z,12344
2017-06-23T11:08:23.388Z,12292
2017-06-23T11:09:22.998Z,10108
2017-06-23T11:10:23.310Z,8508
2017-06-23T11:11:22.986Z,7988
2017-06-23T11:12:22.984Z,9568
2017-06-23T11:13:23.308Z,9524
2017-06-23T11:14:23.298Z,9132
2017-06-23T11:15:22.953Z,8716
2017-06-23T11:16:22.953Z,9120
2017-06-23T11:17:23.248Z,10352
2017-06-23T11:18:22.935Z,9424
2017-06-23T11:19:23.306Z,8376
2017-06-23T11:20:22.922Z,7672
2017-06-23T11:21:22.930Z,7388
2017-06-23T11:22:23.215Z,8012
2017-06-23T11:23:22.880Z,8080
2017-06-23T11:24:22.581Z,6876
2017-06-23T11:25:22.889Z,5432
2017-06-23T11:26:23.229Z,4484
2017-06-23T11:27:23.170Z,4248
2017-06-23T11:28:22.881Z,4704
2017-06-23T11:29:22.856Z,5560
2017-06-23T11:30:23.138Z,6560
2017-06-23T11:31:23.127Z,7644
2017-06-23T11:32:22.829Z,8308
2017-06-23T11:33:22.831Z,8864
2017-06-23T11:34:22.819Z,9444
2017-06-23T11:35:23.119Z,9024
2017-06-23T11:36:23.104Z,8616
2017-06-23T11:37:22.777Z,8480
2017-06-23T11:38:22.841Z,8212
2017-06-23T11:39:22.138Z,7724
2017-06-23T11:40:23.213Z,7624
2017-06-23T11:41:22.448Z,7716
2017-06-23T11:42:23.154Z,7320
2017-06-23T11:43:23.049Z,6808
2017-06-23T11:44:22.428Z,6628
2017-06-23T11:45:22.709Z,6560
2017-06-23T11:46:22.420Z,6872
2017-06-23T11:47:23.012Z,6956
2017-06-23T11:48:22.708Z,7288
2017-06-23T11:49:22.679Z,7900
2017-06-23T11:50:23.039Z,8008
2017-06-23T11:51:22.668Z,7676
2017-06-23T11:52:23.046Z,6968
2017-06-23T11:53:22.340Z,7024
2017-06-23T11:54:22.965Z,7808
2017-06-23T11:55:22.631Z,7792
2017-06-23T11:56:22.978Z,8904
2017-06-23T11:57:22.927Z,8216
2017-06-23T11:58:22.939Z,10072
2017-06-23T11:59:22.897Z,10676
2017-06-23T12:00:22.904Z,10988
2017-06-23T12:01:22.286Z,11412
2017-06-23T12:02:22.586Z,11168
2017-06-23T12:03:22.261Z,10624
2017-06-23T12:04:22.874Z,10452
2017-06-23T12:05:22.257Z,9720
2017-06-23T12:06:22.542Z,10648
2017-06-23T12:07:22.532Z,10716
2017-06-23T12:08:22.818Z,10452
2017-06-23T12:09:22.199Z,10028
2017-06-23T12:10:21.908Z,9544
2017-06-23T12:11:22.190Z,9008
2017-06-23T12:12:22.497Z,8844
2017-06-23T12:13:22.171Z,8640
2017-06-23T12:14:22.485Z,7876
2017-06-23T12:15:22.804Z,7240
2017-06-23T12:16:21.856Z,7156
2017-06-23T12:17:22.510Z,7728
2017-06-23T12:18:22.452Z,7884
2017-06-23T12:19:22.775Z,9728
2017-06-23T12:20:21.811Z,10988
2017-06-23T12:21:22.737Z,10920
2017-06-23T12:22:22.112Z,9696
2017-06-23T12:23:22.420Z,8996
2017-06-23T12:24:22.388Z,9000
2017-06-23T12:25:22.708Z,8140
2017-06-23T12:26:22.713Z,8200
2017-06-23T12:27:22.097Z,7364
2017-06-23T12:28:22.370Z,6624
2017-06-23T12:29:22.378Z,6120
2017-06-23T12:30:22.377Z,5416
2017-06-23T12:31:22.438Z,5296
2017-06-23T12:32:22.332Z,5528
2017-06-23T12:33:22.356Z,6008
2017-06-23T12:34:22.692Z,6584
2017-06-23T12:35:22.683Z,6864
2017-06-23T12:36:22.669Z,7224
2017-06-23T12:37:22.655Z,7844
2017-06-23T12:38:21.996Z,7680
2017-06-23T12:39:22.599Z,7624
2017-06-23T12:40:21.974Z,7524
2017-06-23T12:41:21.970Z,7368
2017-06-23T12:42:22.584Z,7056
2017-06-23T12:43:22.591Z,6660
2017-06-23T12:44:21.940Z,6904
2017-06-23T12:45:22.246Z,7212
2017-06-23T12:46:22.247Z,7492
2017-06-23T12:47:22.548Z,8148
2017-06-23T12:48:22.219Z,8252
2017-06-23T12:49:22.219Z,7724
2017-06-23T12:50:21.991Z,6864
2017-06-23T12:51:22.200Z,6308
2017-06-23T12:52:22.188Z,6688
2017-06-23T12:53:22.505Z,6516
2017-06-23T12:54:22.500Z,6972
2017-06-23T12:55:22.501Z,6308
2017-06-23T12:56:22.159Z,5964
2017-06-23T12:57:21.860Z,5740
2017-06-23T12:58:22.459Z,5408
2017-06-23T12:59:22.126Z,5284
2017-06-23T13:00:22.431Z,5620
2017-06-23T13:01:22.127Z,5928
2017-06-23T13:02:22.412Z,6340
2017-06-23T13:03:22.423Z,6896
2017-06-23T13:04:22.086Z,7380
2017-06-23T13:05:21.779Z,7668
2017-06-23T13:06:22.093Z,8000
2017-06-23T13:07:21.772Z,8080
2017-06-23T13:08:22.383Z,7996
2017-06-23T13:09:22.350Z,8324
2017-06-23T13:10:22.054Z,8452
2017-06-23T13:11:22.052Z,8524
2017-06-23T13:12:22.330Z,8420
2017-06-23T13:13:22.029Z,7512
2017-06-23T13:14:22.033Z,7352
2017-06-23T13:15:21.690Z,6968
2017-06-23T13:16:22.001Z,6900
2017-06-23T13:17:22.316Z,7132
2017-06-23T13:18:21.992Z,7156
2017-06-23T13:19:22.285Z,7324
2017-06-23T13:20:21.658Z,7372
2017-06-23T13:21:22.254Z,7296
2017-06-23T13:22:22.016Z,7356
2017-06-23T13:23:21.987Z,7228
2017-06-23T13:24:21.932Z,7132
2017-06-23T13:25:21.957Z,7256
2017-06-23T13:26:21.911Z,7540
2017-06-23T13:27:21.607Z,7976
2017-06-23T13:28:21.907Z,7636
2017-06-23T13:29:21.591Z,7764
2017-06-23T13:30:21.884Z,7892
2017-06-23T13:31:21.878Z,8048
2017-06-23T13:32:21.879Z,7708
2017-06-23T13:33:22.157Z,8956
2017-06-23T13:34:21.859Z,9520
2017-06-23T13:35:21.908Z,9364